createdAt,value
2022-12-18T00:00:14.721Z,59.65
2022-12-18T00:03:17.271Z,57.83
2022-12-18T00:06:20.767Z,54.80
2022-12-18T00:09:24.698Z,57.10
2022-12-18T00:12:29.826Z,58.90
2022-12-18T00:15:35.839Z,51.13
2022-12-18T00:18:38.706Z,56.83
2022-12-18T00:21:41.483Z,41.83
2022-12-18T00:24:44.639Z,62.65
2022-12-18T00:27:47.663Z,70.55
2022-12-18T00:30:52.473Z,76.18
2022-12-18T00:33:58.828Z,67.85
2022-12-18T00:37:01.088Z,54.58
2022-12-18T00:40:04.294Z,61.95
2022-12-18T00:43:06.673Z,64.32
2022-12-18T00:46:11.740Z,64.43
2022-12-18T00:49:14.110Z,62.97
2022-12-18T00:52:16.384Z,60.63
2022-12-18T00:55:19.362Z,68.07
2022-12-18T00:58:22.929Z,66.05
2022-12-18T01:01:25.351Z,67.10
2022-12-18T01:04:27.786Z,72.40
2022-12-18T01:07:30.077Z,54.72
2022-12-18T01:10:32.604Z,58.67
2022-12-18T01:13:36.689Z,69.32
2022-12-18T01:16:39.319Z,65.07
2022-12-18T01:19:41.900Z,63.70
2022-12-18T01:22:46.096Z,69.25
2022-12-18T01:25:48.441Z,64.03
2022-12-18T01:28:50.780Z,55.97
2022-12-18T01:31:56.231Z,50.03
2022-12-18T01:34:58.701Z,57.13
2022-12-18T01:38:02.963Z,59.97
2022-12-18T01:41:05.260Z,62.17
2022-12-18T01:44:46.473Z,42.13
2022-12-18T01:47:51.793Z,56.33
2022-12-18T01:50:54.193Z,50.38
2022-12-18T01:53:56.762Z,54.88
2022-12-18T01:56:59.103Z,65.17
2022-12-18T02:00:05.458Z,62.00
2022-12-18T02:03:15.141Z,77.65
2022-12-18T02:06:23.523Z,67.17
2022-12-18T02:09:35.964Z,63.70
2022-12-18T02:12:43.991Z,64.50
2022-12-18T02:15:52.124Z,54.90
2022-12-18T02:19:01.894Z,60.33
2022-12-18T02:22:25.795Z,62.85
2022-12-18T02:25:36.826Z,72.07
2022-12-18T02:28:45.840Z,58.90
2022-12-18T02:31:53.248Z,56.80
2022-12-18T02:34:57.746Z,55.28
2022-12-18T02:38:02.008Z,55.40
2022-12-18T02:41:07.400Z,56.70
2022-12-18T02:44:14.255Z,63.80
2022-12-18T02:47:20.694Z,61.27
2022-12-18T02:50:39.862Z,58.57
2022-12-18T02:53:53.570Z,55.60
2022-12-18T02:56:57.759Z,65.03
2022-12-18T03:00:02.106Z,61.90
2022-12-18T03:03:14.099Z,62.07
2022-12-18T03:06:27.197Z,62.17
2022-12-18T03:12:40.017Z,65.00
2022-12-18T03:15:47.373Z,57.90
2022-12-18T03:18:53.983Z,58.83
2022-12-18T03:21:58.205Z,61.63
2022-12-18T03:25:05.518Z,62.57
2022-12-18T03:28:12.650Z,65.07
2022-12-18T03:31:16.285Z,66.03
2022-12-18T03:34:25.316Z,61.93
2022-12-18T03:37:27.916Z,62.73
2022-12-18T03:40:45.220Z,61.37
2022-12-18T03:43:54.554Z,62.67
2022-12-18T03:47:29.801Z,60.67
2022-12-18T03:50:35.489Z,64.80
2022-12-18T03:53:49.393Z,55.55
2022-12-18T03:56:58.822Z,59.43
2022-12-18T04:00:11.774Z,57.27
2022-12-18T04:03:18.077Z,56.43
2022-12-18T04:06:23.375Z,52.83
2022-12-18T04:09:27.854Z,52.77
2022-12-18T04:12:31.126Z,40.75
2022-12-18T04:15:35.729Z,58.10
2022-12-18T04:18:39.141Z,62.22
2022-12-18T04:21:41.576Z,60.97
2022-12-18T04:24:46.267Z,103.83
2022-12-18T04:27:56.904Z,71.57
2022-12-18T04:30:59.224Z,66.53
2022-12-18T04:34:01.713Z,64.45
2022-12-18T04:37:04.484Z,68.32
2022-12-18T04:40:07.771Z,47.83
2022-12-18T04:43:16.241Z,62.63
2022-12-18T04:46:18.729Z,47.37
2022-12-18T04:49:21.036Z,59.28
2022-12-18T04:52:26.340Z,51.17
2022-12-18T04:55:28.944Z,51.00
2022-12-18T04:58:31.311Z,52.83
2022-12-18T05:01:34.968Z,51.17
2022-12-18T05:04:37.614Z,51.87
2022-12-18T05:07:39.926Z,50.83
2022-12-18T05:10:42.209Z,54.03
2022-12-18T05:13:45.783Z,47.30
2022-12-18T05:16:48.173Z,44.17
2022-12-18T05:19:50.469Z,42.47
2022-12-18T05:22:53.330Z,48.83
2022-12-18T05:25:55.677Z,54.90
2022-12-18T05:28:58.067Z,52.47
2022-12-18T05:32:00.432Z,49.53
2022-12-18T05:35:02.862Z,44.50
2022-12-18T05:38:05.226Z,51.67
2022-12-18T05:41:08.339Z,52.83
2022-12-18T05:44:10.640Z,45.20
2022-12-18T05:47:12.983Z,50.13
2022-12-18T05:50:15.288Z,50.87
2022-12-18T05:53:20.443Z,50.60
2022-12-18T05:56:24.233Z,53.53
2022-12-18T05:59:26.631Z,48.53
2022-12-18T06:02:29.202Z,49.70
2022-12-18T06:05:36.891Z,47.60
2022-12-18T06:08:42.932Z,52.27
2022-12-18T06:11:48.532Z,50.90
2022-12-18T06:14:50.897Z,37.40
2022-12-18T06:17:53.261Z,62.23
2022-12-18T06:20:57.436Z,49.70
2022-12-18T06:23:59.979Z,51.10
2022-12-18T06:27:02.341Z,51.75
2022-12-18T06:30:06.160Z,45.07
2022-12-18T06:33:08.469Z,47.40
2022-12-18T06:36:12.648Z,59.57
2022-12-18T06:39:15.068Z,58.03
2022-12-18T06:42:17.351Z,53.77
2022-12-18T06:45:19.650Z,66.30
2022-12-18T06:48:22.041Z,81.93
2022-12-18T06:51:25.346Z,154.70
2022-12-18T06:54:27.755Z,95.80
2022-12-18T06:57:30.280Z,69.73
2022-12-18T07:00:32.660Z,49.17
2022-12-18T07:03:35.463Z,77.30
2022-12-18T07:06:37.855Z,52.20
2022-12-18T07:09:40.230Z,75.33
2022-12-18T07:12:42.477Z,87.73
2022-12-18T07:15:45.492Z,85.97
2022-12-18T07:18:48.392Z,82.30
2022-12-18T07:21:51.993Z,81.57
2022-12-18T07:24:54.373Z,93.80
2022-12-18T07:27:56.657Z,87.47
2022-12-18T07:30:59.965Z,81.80
2022-12-18T07:34:02.277Z,79.90
2022-12-18T07:37:04.685Z,96.90
2022-12-18T07:40:07.535Z,101.68
2022-12-18T07:43:09.750Z,79.72
2022-12-18T07:46:14.791Z,80.05
2022-12-18T07:49:17.215Z,75.32
2022-12-18T07:52:25.582Z,74.78
2022-12-18T07:55:28.505Z,91.07
2022-12-18T07:58:32.487Z,169.23
2022-12-18T08:01:35.649Z,179.73
2022-12-18T08:04:38.663Z,81.57
2022-12-18T08:07:41.146Z,63.60
2022-12-18T08:10:43.451Z,88.20
2022-12-18T08:13:45.724Z,124.78
2022-12-18T08:16:48.168Z,113.07
2022-12-18T08:19:50.461Z,91.18
2022-12-18T08:22:52.821Z,86.97
2022-12-18T08:25:55.153Z,81.23
2022-12-18T08:28:58.473Z,74.23
2022-12-18T08:32:01.025Z,86.20
2022-12-18T08:35:03.464Z,80.85
2022-12-18T08:38:06.026Z,82.93
2022-12-18T08:41:10.928Z,88.63
2022-12-18T08:44:32.156Z,324.50
2022-12-18T08:47:34.488Z,93.90
2022-12-18T08:50:36.800Z,79.43
2022-12-18T08:53:39.960Z,83.68
2022-12-18T08:56:42.495Z,82.15
2022-12-18T08:59:44.718Z,78.10
2022-12-18T09:02:47.236Z,83.13
2022-12-18T09:05:50.166Z,82.00
2022-12-18T09:08:52.566Z,75.70
2022-12-18T09:11:54.900Z,78.97
2022-12-18T09:14:57.771Z,75.57
2022-12-18T09:18:00.136Z,77.80
2022-12-18T09:21:09.758Z,75.38
2022-12-18T09:24:14.586Z,66.43
2022-12-18T09:27:16.847Z,84.38
2022-12-18T09:30:19.327Z,170.85
2022-12-18T09:33:21.634Z,79.15
2022-12-18T09:36:23.949Z,82.45
2022-12-18T09:39:26.282Z,77.35
2022-12-18T09:42:28.685Z,79.32
2022-12-18T09:45:40.779Z,75.03
2022-12-18T09:48:46.420Z,124.65
2022-12-18T09:51:54.383Z,92.97
2022-12-18T09:55:00.772Z,78.25
2022-12-18T09:58:09.272Z,143.43
2022-12-18T10:01:13.828Z,94.15
2022-12-18T10:04:16.330Z,95.43
2022-12-18T10:07:29.774Z,126.15
2022-12-18T10:10:59.981Z,136.70
2022-12-18T10:14:32.106Z,82.78
2022-12-18T10:17:49.022Z,83.80
2022-12-18T10:20:54.929Z,87.57
2022-12-18T10:24:18.964Z,88.15
2022-12-18T10:27:25.279Z,82.60
2022-12-18T10:30:27.831Z,95.57
2022-12-18T10:33:32.887Z,89.82
2022-12-18T10:36:35.216Z,89.15
2022-12-18T10:39:37.717Z,97.30
2022-12-18T10:42:40.759Z,100.30
2022-12-18T10:45:44.015Z,112.05
2022-12-18T10:48:49.518Z,94.72
2022-12-18T10:51:52.722Z,98.30
2022-12-18T10:54:59.365Z,80.40
2022-12-18T10:58:26.591Z,127.80
2022-12-18T11:01:30.073Z,95.28
2022-12-18T11:04:36.355Z,205.75
2022-12-18T11:07:51.206Z,109.65
2022-12-18T11:10:53.583Z,86.20
2022-12-18T11:14:08.961Z,113.63
2022-12-18T11:17:26.157Z,87.70
2022-12-18T11:20:35.338Z,81.45
2022-12-18T11:23:39.309Z,96.72
2022-12-18T11:26:44.430Z,121.95
2022-12-18T11:29:47.019Z,74.68
2022-12-18T11:32:52.796Z,77.40
2022-12-18T11:36:00.343Z,78.60
2022-12-18T11:39:11.249Z,69.85
2022-12-18T11:42:21.983Z,95.63
2022-12-18T11:45:36.012Z,146.20
2022-12-18T11:49:00.812Z,86.00
2022-12-18T11:52:25.809Z,76.63
2022-12-18T11:55:28.340Z,70.60
2022-12-18T11:59:15.266Z,80.40
2022-12-18T12:02:47.001Z,79.28
2022-12-18T12:06:12.339Z,71.85
2022-12-18T12:10:16.027Z,108.30
2022-12-18T12:13:57.344Z,81.60
2022-12-18T12:17:22.418Z,80.85
2022-12-18T12:23:39.734Z,72.70
2022-12-18T12:26:53.586Z,73.07
2022-12-18T12:30:05.117Z,75.20
2022-12-18T12:33:48.629Z,86.18
2022-12-18T12:37:24.004Z,76.68
2022-12-18T12:43:51.958Z,120.78
2022-12-18T12:46:57.956Z,113.43
2022-12-18T12:50:02.827Z,75.03
2022-12-18T12:53:09.693Z,140.85
2022-12-18T12:56:19.101Z,99.15
2022-12-18T12:59:36.816Z,77.70
2022-12-18T13:02:58.165Z,77.18
2022-12-18T13:06:04.650Z,79.93
2022-12-18T13:09:07.582Z,77.93
2022-12-18T13:16:08.339Z,101.85
2022-12-18T13:19:26.469Z,92.93
2022-12-18T13:22:38.599Z,84.68
2022-12-18T13:25:41.182Z,83.97
2022-12-18T13:28:49.645Z,91.72
2022-12-18T13:31:51.926Z,87.38
2022-12-18T13:35:19.198Z,76.10
2022-12-18T13:38:36.028Z,81.55
2022-12-18T13:41:38.448Z,81.60
2022-12-18T13:44:42.665Z,72.03
2022-12-18T13:47:45.297Z,65.38
2022-12-18T13:50:54.446Z,81.05
2022-12-18T13:54:00.876Z,82.72
2022-12-18T13:57:04.545Z,72.72
2022-12-18T14:00:31.694Z,74.82
2022-12-18T14:03:34.134Z,76.65
2022-12-18T14:06:36.693Z,74.53
2022-12-18T14:09:42.836Z,99.77
2022-12-18T14:12:57.850Z,97.13
2022-12-18T14:16:06.672Z,68.97
2022-12-18T14:19:19.495Z,72.63
2022-12-18T14:22:30.319Z,79.97
2022-12-18T14:25:32.790Z,87.53
2022-12-18T14:28:45.348Z,94.13
2022-12-18T14:31:47.864Z,106.53
2022-12-18T14:37:53.750Z,126.90
2022-12-18T14:41:04.806Z,122.28
2022-12-18T14:44:08.318Z,165.27
2022-12-18T14:47:16.183Z,130.82
2022-12-18T14:50:18.884Z,129.30
2022-12-18T14:53:35.943Z,168.18
2022-12-18T14:56:45.845Z,147.50
2022-12-18T14:59:48.204Z,145.18
2022-12-18T15:02:55.027Z,150.20
2022-12-18T15:05:57.555Z,158.65
2022-12-18T15:09:03.282Z,172.13
2022-12-18T15:12:06.393Z,133.57
2022-12-18T15:15:41.552Z,118.78
2022-12-18T15:18:44.132Z,121.50
2022-12-18T15:21:46.504Z,120.57
2022-12-18T15:24:49.051Z,120.32
2022-12-18T15:27:51.419Z,119.55
2022-12-18T15:31:01.537Z,126.00
2022-12-18T15:34:11.839Z,127.40
2022-12-18T15:37:14.148Z,117.10
2022-12-18T15:40:18.431Z,98.95
2022-12-18T15:43:36.548Z,187.50
2022-12-18T15:46:38.979Z,210.20
2022-12-18T15:52:46.538Z,120.78
2022-12-18T15:56:07.232Z,129.10
2022-12-18T15:59:14.852Z,167.43
2022-12-18T16:02:21.693Z,145.15
2022-12-18T16:05:25.094Z,140.98
2022-12-18T16:08:27.401Z,182.35
2022-12-18T16:11:41.812Z,159.73
2022-12-18T16:14:44.502Z,168.68
2022-12-18T16:17:48.645Z,115.43
2022-12-18T16:20:54.165Z,111.68
2022-12-18T16:24:00.363Z,139.02
2022-12-18T16:27:02.680Z,130.30
2022-12-18T16:30:05.913Z,116.43
2022-12-18T16:33:08.602Z,113.53
2022-12-18T16:36:11.102Z,104.10
2022-12-18T16:39:13.485Z,90.85
2022-12-18T16:42:21.294Z,68.20
2022-12-18T16:45:24.457Z,85.53
2022-12-18T16:48:29.971Z,83.95
2022-12-18T16:51:33.821Z,70.80
2022-12-18T16:54:38.440Z,88.68
2022-12-18T16:57:44.000Z,113.88
2022-12-18T17:00:46.764Z,117.78
2022-12-18T17:03:56.263Z,229.60
2022-12-18T17:06:59.403Z,201.02
2022-12-18T17:10:01.754Z,106.47
2022-12-18T17:13:04.183Z,87.65
2022-12-18T17:16:07.735Z,115.13
2022-12-18T17:19:15.343Z,268.15
2022-12-18T17:22:20.699Z,208.48
2022-12-18T17:25:23.079Z,157.13
2022-12-18T17:28:27.987Z,104.47
2022-12-18T17:31:31.473Z,106.18
2022-12-18T17:37:36.089Z,100.55
2022-12-18T17:40:43.132Z,113.65
2022-12-18T17:43:58.394Z,105.53
2022-12-18T17:47:00.856Z,122.78
2022-12-18T17:50:03.610Z,123.00
2022-12-18T17:53:08.704Z,121.00
2022-12-18T17:56:15.724Z,122.82
2022-12-18T17:59:18.292Z,111.40
2022-12-18T18:02:21.338Z,112.65
2022-12-18T18:05:23.820Z,155.60
2022-12-18T18:08:28.608Z,187.77
2022-12-18T18:11:51.628Z,157.02
2022-12-18T18:14:56.299Z,156.33
2022-12-18T18:17:58.690Z,134.63
2022-12-18T18:21:13.223Z,139.27
2022-12-18T18:24:23.056Z,145.20
2022-12-18T18:27:25.793Z,141.03
2022-12-18T18:30:30.544Z,123.50
2022-12-18T18:33:34.124Z,156.18
2022-12-18T18:36:36.550Z,140.13
2022-12-18T18:39:39.195Z,151.27
2022-12-18T18:42:43.010Z,138.43
2022-12-18T18:45:46.081Z,138.60
2022-12-18T18:48:53.194Z,135.13
2022-12-18T18:51:57.466Z,141.33
2022-12-18T18:55:12.688Z,124.90
2022-12-18T18:58:15.647Z,115.70
2022-12-18T19:01:22.150Z,151.93
2022-12-18T19:04:24.685Z,145.13
2022-12-18T19:07:31.289Z,234.10
2022-12-18T19:10:36.056Z,146.13
2022-12-18T19:13:38.830Z,207.67
2022-12-18T19:16:42.880Z,148.85
2022-12-18T19:19:45.687Z,159.40
2022-12-18T19:22:55.584Z,118.60
2022-12-18T19:26:27.110Z,130.93
2022-12-18T19:29:29.779Z,153.83
2022-12-18T19:32:32.730Z,121.00
2022-12-18T19:35:35.261Z,116.25
2022-12-18T19:41:45.784Z,115.20
2022-12-18T19:44:48.175Z,111.53
2022-12-18T19:47:50.801Z,87.63
2022-12-18T19:50:54.499Z,126.20
2022-12-18T19:53:59.092Z,93.03
2022-12-18T19:57:04.692Z,115.43
2022-12-18T20:00:14.063Z,117.43
2022-12-18T20:03:28.734Z,127.50
2022-12-18T20:06:46.225Z,388.40
2022-12-18T20:09:49.362Z,121.33
2022-12-18T20:12:55.098Z,134.27
2022-12-18T20:15:59.339Z,124.97
2022-12-18T20:19:01.691Z,118.45
2022-12-18T20:22:04.447Z,128.88
2022-12-18T20:25:07.232Z,130.77
2022-12-18T20:28:09.518Z,113.10
2022-12-18T20:31:13.799Z,111.37
2022-12-18T20:34:16.612Z,130.20
2022-12-18T20:37:19.998Z,122.53
2022-12-18T20:40:24.071Z,139.83
2022-12-18T20:43:26.410Z,150.57
2022-12-18T20:46:28.788Z,164.60
2022-12-18T20:49:31.301Z,91.80
2022-12-18T20:52:34.754Z,131.90
2022-12-18T20:55:42.628Z,119.10
2022-12-18T20:58:45.063Z,120.80
2022-12-18T21:07:12.903Z,118.83
2022-12-18T21:10:15.505Z,122.37
2022-12-18T21:13:17.938Z,102.63
2022-12-18T21:16:20.938Z,121.20
2022-12-18T21:19:25.650Z,118.17
2022-12-18T21:22:28.540Z,99.00
2022-12-18T21:25:31.005Z,103.22
2022-12-18T21:51:40.076Z,106.83
2022-12-18T21:54:42.330Z,95.00
2022-12-18T21:57:44.597Z,96.90
2022-12-18T22:00:48.757Z,82.53
2022-12-18T22:03:51.277Z,84.57
2022-12-18T22:06:53.834Z,81.03
2022-12-18T22:09:56.140Z,69.95
2022-12-18T22:12:59.951Z,85.17
2022-12-18T22:16:02.234Z,83.60
2022-12-18T22:19:04.600Z,80.77
2022-12-18T22:22:06.893Z,96.20
2022-12-18T22:25:10.767Z,85.67
2022-12-18T22:28:31.969Z,85.37
2022-12-18T22:33:49.002Z,94.87
2022-12-18T22:36:51.447Z,87.40
2022-12-18T22:39:53.974Z,71.20
2022-12-18T22:42:56.524Z,69.97
2022-12-18T22:45:58.816Z,95.80
2022-12-18T22:49:01.238Z,87.10
2022-12-18T22:52:09.422Z,84.33
2022-12-18T22:55:11.805Z,92.40
2022-12-18T23:01:22.998Z,95.60
2022-12-18T23:04:29.074Z,92.63
2022-12-18T23:07:38.852Z,87.47
2022-12-18T23:10:41.112Z,87.93
2022-12-18T23:13:43.967Z,86.50
2022-12-18T23:16:46.440Z,69.45
2022-12-18T23:19:50.330Z,88.23
2022-12-18T23:22:53.031Z,91.80
2022-12-18T23:26:11.213Z,72.13
2022-12-18T23:29:13.563Z,90.80
2022-12-18T23:32:15.946Z,64.00
2022-12-18T23:37:12.518Z,97.57
2022-12-18T23:44:41.051Z,97.77
2022-12-18T23:47:43.337Z,95.83
2022-12-18T23:50:47.598Z,88.33
2022-12-18T23:53:50.609Z,89.40
2022-12-18T23:56:52.973Z,89.93
2022-12-18T23:59:55.315Z,83.87
